Time;durP1;ratioP1;P1;durP2;ratioP2;P2;SDS_P1;SDS_P2;PMS_P1;PMS_P2;Temp;Humidity;BMP_temperature;BMP_pressure;BME280_temperature;BME280_humidity;BME280_pressure;Samples;Min_cycle;Max_cycle;Signal;HPM_P1;HPM_P2
2022/07/10 00:00:29;;;;;;;;;3.00;3.00;;;;;22.11;42.24;102252.31;4863236;29;45455;-65
2022/07/10 00:02:55;;;;;;;;;1.25;1.25;;;;;22.10;42.12;102266.88;4863064;29;45517;-64
2022/07/10 00:05:21;;;;;;;;;3.75;2.75;;;;;21.99;42.19;102259.34;4862265;29;45553;-65
2022/07/10 00:07:46;;;;;;;;;2.50;2.00;;;;;21.93;42.23;102268.69;4862566;29;45528;-65
2022/07/10 00:10:12;;;;;;;;;3.00;3.00;;;;;21.81;42.81;102266.69;4862740;29;45358;-65
2022/07/10 00:12:37;;;;;;;;;2.25;2.25;;;;;21.71;43.29;102269.03;4863223;29;45620;-64
2022/07/10 00:15:04;;;;;;;;;2.75;2.75;;;;;21.62;43.36;102265.00;4862815;29;45443;-64
2022/07/10 00:17:30;;;;;;;;;2.25;2.00;;;;;21.59;43.39;102267.00;4863611;29;45210;-64
2022/07/10 00:19:56;;;;;;;;;2.00;2.00;;;;;21.54;43.42;102267.25;4862967;29;45526;-64
2022/07/10 00:22:21;;;;;;;;;3.25;2.00;;;;;21.57;43.78;102266.22;4864143;29;45440;-64
2022/07/10 00:24:46;;;;;;;;;8.25;7.50;;;;;21.55;43.77;102262.69;4865008;29;45432;-65
2022/07/10 00:27:12;;;;;;;;;1.50;1.50;;;;;21.53;43.75;102265.47;4864546;29;48817;-64
2022/07/10 00:29:37;;;;;;;;;2.25;2.25;;;;;21.54;43.30;102269.97;4864944;29;45493;-64
2022/07/10 00:32:03;;;;;;;;;3.50;3.00;;;;;21.56;43.71;102276.19;4864923;29;45579;-65
2022/07/10 00:34:28;;;;;;;;;2.75;2.75;;;;;21.62;43.73;102275.00;4862695;29;47054;-64
2022/07/10 00:36:53;;;;;;;;;1.00;1.00;;;;;21.58;43.96;102271.53;4864887;29;45499;-65
2022/07/10 00:39:19;;;;;;;;;2.00;2.00;;;;;21.54;43.59;102269.97;4865069;29;45515;-65
2022/07/10 00:41:44;;;;;;;;;2.75;2.75;;;;;21.50;44.18;102271.09;4865479;29;45490;-65
2022/07/10 00:44:09;;;;;;;;;2.25;2.25;;;;;21.44;43.64;102266.81;4863910;29;57299;-65
2022/07/10 00:46:35;;;;;;;;;4.00;4.00;;;;;21.41;44.45;102268.84;4861755;29;45451;-65
2022/07/10 00:49:00;;;;;;;;;2.00;2.00;;;;;21.44;44.02;102265.97;4844339;29;45261;-64
2022/07/10 00:51:28;;;;;;;;;3.25;3.25;;;;;21.40;43.95;102261.63;4862678;29;45160;-65
2022/07/10 00:53:55;;;;;;;;;4.25;3.25;;;;;21.37;44.63;102262.69;4863495;29;46009;-65
2022/07/10 00:56:24;;;;;;;;;3.00;1.50;;;;;21.32;44.66;102266.59;4860473;29;45739;-65
2022/07/10 00:58:50;;;;;;;;;3.25;2.50;;;;;21.26;44.26;102273.25;4862136;29;45597;-65
2022/07/10 01:01:16;;;;;;;;;3.00;1.25;;;;;21.15;44.86;102275.66;4862832;29;45436;-65
2022/07/10 01:03:42;;;;;;;;;5.00;4.25;;;;;21.10;44.80;102262.34;4862141;29;46099;-65
2022/07/10 01:06:08;;;;;;;;;3.25;3.00;;;;;21.09;44.99;102264.16;4860986;29;45431;-65
2022/07/10 01:08:33;;;;;;;;;3.00;3.00;;;;;;;;4861954;29;45398;-65
2022/07/10 01:10:59;;;;;;;;;3.50;3.00;;;;;21.10;45.38;102262.34;4860524;29;45416;-64
2022/07/10 01:13:24;;;;;;;;;3.00;3.00;;;;;;;;4862005;29;47638;-64
2022/07/10 01:15:50;;;;;;;;;2.00;2.00;;;;;21.07;45.94;102260.66;4862902;29;45500;-65
2022/07/10 01:18:16;;;;;;;;;3.00;3.00;;;;;21.05;45.85;102262.56;4863598;29;45497;-64
2022/07/10 01:20:41;;;;;;;;;3.25;2.25;;;;;21.02;45.45;102253.72;4861061;29;45444;-65
2022/07/10 01:23:06;;;;;;;;;3.75;3.00;;;;;20.98;45.83;102273.81;4865449;29;45448;-65
2022/07/10 01:25:32;;;;;;;;;3.25;3.25;;;;;20.88;45.91;102258.03;4862145;29;50416;-64
2022/07/10 01:27:58;;;;;;;;;3.25;2.25;;;;;20.91;46.14;102256.97;4860682;29;45511;-64
2022/07/10 01:30:24;;;;;;;;;2.00;2.00;;;;;20.95;45.76;102257.69;4863545;29;45402;-64
2022/07/10 01:32:50;;;;;;;;;3.50;3.00;;;;;20.87;45.75;102256.28;4862685;29;45927;-65
2022/07/10 01:35:15;;;;;;;;;3.00;3.00;;;;;20.85;46.11;102262.75;4858868;29;45441;-64
2022/07/10 01:37:40;;;;;;;;;3.75;3.00;;;;;20.84;45.99;102256.41;4861568;29;45517;-64
2022/07/10 01:40:08;;;;;;;;;3.50;2.75;;;;;20.80;45.53;102256.66;4862843;29;45383;-65
2022/07/10 01:42:33;;;;;;;;;4.25;2.75;;;;;20.67;46.18;102253.72;4862475;29;47496;-65
2022/07/10 01:44:58;;;;;;;;;2.25;2.25;;;;;20.52;46.60;102267.06;4866440;29;46425;-65
2022/07/10 01:47:25;;;;;;;;;3.00;3.00;;;;;20.48;46.63;102260.03;4864895;29;45481;-65
2022/07/10 01:49:52;;;;;;;;;4.00;3.00;;;;;20.43;46.33;102266.63;4864103;29;45491;-64
2022/07/10 01:52:18;;;;;;;;;2.00;2.00;;;;;20.25;46.65;102257.59;4865070;29;46498;-64
2022/07/10 01:54:43;;;;;;;;;4.00;4.00;;;;;20.15;47.30;102260.75;4865804;29;45411;-65
2022/07/10 01:57:09;;;;;;;;;4.00;3.00;;;;;20.04;46.96;102259.50;4866040;29;45463;-65
2022/07/10 01:59:34;;;;;;;;;3.00;2.75;;;;;19.99;47.58;102249.75;4866648;29;46415;-65
2022/07/10 02:01:59;;;;;;;;;3.75;2.25;;;;;20.00;47.58;102264.19;4862268;29;46109;-64
2022/07/10 02:04:43;;;;;;;;;3.75;3.25;;;;;19.98;47.60;102264.28;4866730;29;46359;-65
2022/07/10 02:07:10;;;;;;;;;1.50;1.50;;;;;19.92;47.41;102272.69;4864095;29;45516;-64
2022/07/10 02:09:35;;;;;;;;;4.25;4.25;;;;;19.76;47.59;102261.72;4864731;29;45764;-64
2022/07/10 02:12:01;;;;;;;;;2.75;2.00;;;;;19.71;47.56;102263.72;4863077;29;45923;-64
2022/07/10 02:14:27;;;;;;;;;2.00;2.00;;;;;19.64;47.95;102262.22;4866745;29;45503;-65
2022/07/10 02:16:52;;;;;;;;;3.00;2.75;;;;;19.60;48.02;102266.91;4865026;29;45404;-64
2022/07/10 02:19:18;;;;;;;;;3.50;3.00;;;;;19.65;47.95;102268.56;4864195;29;45621;-65
2022/07/10 02:21:43;;;;;;;;;2.75;2.75;;;;;19.62;48.19;102272.25;4863482;29;51200;-64
2022/07/10 02:24:09;;;;;;;;;3.00;2.00;;;;;19.58;47.88;102263.41;4867292;29;45425;-64
2022/07/10 02:26:34;;;;;;;;;3.25;2.25;;;;;19.49;48.76;102257.53;4867516;29;45423;-64
2022/07/10 02:28:59;;;;;;;;;4.50;4.50;;;;;19.47;48.74;102260.31;4864271;29;54295;-64
2022/07/10 02:31:25;;;;;;;;;3.25;3.25;;;;;19.42;48.70;102257.81;4863466;29;50327;-64
2022/07/10 02:33:50;;;;;;;;;2.00;2.00;;;;;19.39;48.92;102243.53;4864864;29;45496;-64
2022/07/10 02:36:15;;;;;;;;;3.00;3.00;;;;;19.48;48.79;102253.06;4859574;29;52846;-65
2022/07/10 02:38:41;;;;;;;;;3.00;2.00;;;;;19.48;48.55;102256.66;4849129;29;45465;-65
2022/07/10 02:41:06;;;;;;;;;5.00;3.00;;;;;19.49;48.78;102246.69;4864893;29;51651;-64
2022/07/10 02:43:31;;;;;;;;;2.25;2.25;;;;;19.57;48.73;102258.94;4864825;29;45520;-64
2022/07/10 02:45:57;;;;;;;;;4.00;3.50;;;;;19.52;48.31;102241.16;4864504;29;46593;-64
2022/07/10 02:48:22;;;;;;;;;3.00;3.00;;;;;19.56;48.84;102254.47;4864773;29;45552;-64
2022/07/10 02:50:47;;;;;;;;;4.50;4.25;;;;;19.49;48.34;102241.28;4864511;29;45456;-64
2022/07/10 02:53:13;;;;;;;;;3.50;3.00;;;;;19.36;49.03;102219.28;4864871;29;45388;-65
2022/07/10 02:55:38;;;;;;;;;4.00;3.00;;;;;19.44;48.63;102233.38;4865114;29;45506;-64
2022/07/10 02:58:04;;;;;;;;;4.00;4.00;;;;;19.42;48.78;102228.00;4866066;29;45440;-64
2022/07/10 03:00:29;;;;;;;;;5.50;5.00;;;;;19.42;49.07;102229.84;4863008;29;46442;-64
2022/07/10 03:02:55;;;;;;;;;4.25;4.00;;;;;19.41;48.90;102222.66;4864404;29;45457;-65
2022/07/10 03:05:21;;;;;;;;;6.00;3.00;;;;;19.41;49.23;102228.97;4863654;29;45427;-65
2022/07/10 03:07:47;;;;;;;;;5.75;4.50;;;;;19.43;49.07;102231.63;4864679;29;45174;-64
2022/07/10 03:10:12;;;;;;;;;3.00;3.00;;;;;19.45;48.93;102229.72;4865444;29;46103;-65
2022/07/10 03:12:38;;;;;;;;;5.50;5.50;;;;;19.42;49.06;102238.84;4846609;29;46405;-64
2022/07/10 03:15:05;;;;;;;;;4.00;4.00;;;;;19.39;48.93;102238.13;4864495;29;45522;-64
2022/07/10 03:17:30;;;;;;;;;3.25;2.75;;;;;19.36;48.94;102232.84;4864033;29;45546;-64
2022/07/10 03:19:56;;;;;;;;;3.75;3.75;;;;;19.39;49.00;102236.28;4863029;29;45641;-64
2022/07/10 03:22:21;;;;;;;;;4.00;4.00;;;;;19.43;48.93;102239.75;4863998;29;45445;-65
2022/07/10 03:24:47;;;;;;;;;4.75;3.25;;;;;19.38;49.17;102228.25;4865565;29;45379;-65
2022/07/10 03:27:15;;;;;;;;;4.50;4.50;;;;;19.34;48.79;102224.78;4858910;29;45392;-64
2022/07/10 03:29:40;;;;;;;;;2.25;2.25;;;;;19.30;48.99;102225.00;4864139;29;45419;-64
2022/07/10 03:32:06;;;;;;;;;5.00;3.00;;;;;19.28;49.47;102226.88;4864105;29;45417;-64
2022/07/10 03:34:33;;;;;;;;;3.75;3.00;;;;;19.31;49.07;102227.66;4862515;29;45360;-64
2022/07/10 03:37:00;;;;;;;;;3.00;3.00;;;;;19.30;49.53;102223.19;4862646;29;45448;-64
2022/07/10 03:39:25;;;;;;;;;3.75;3.75;;;;;19.33;49.15;102224.84;4865292;29;45377;-64
2022/07/10 03:41:51;;;;;;;;;2.00;2.00;;;;;19.30;49.64;102231.28;4862339;29;45413;-65
2022/07/10 03:44:16;;;;;;;;;5.75;4.00;;;;;19.27;49.56;102233.28;4864264;29;45841;-64
2022/07/10 03:46:41;;;;;;;;;3.00;2.25;;;;;19.16;49.50;102233.72;4863076;29;48897;-65
2022/07/10 03:49:07;;;;;;;;;4.00;4.00;;;;;19.18;49.51;102226.44;4863343;29;45319;-65
2022/07/10 03:51:32;;;;;;;;;3.50;3.50;;;;;19.17;49.80;102228.25;4863088;29;45384;-65
2022/07/10 03:53:57;;;;;;;;;3.25;3.25;;;;;19.14;49.84;102205.88;4863068;29;45431;-65
2022/07/10 03:59:06;;;;;;;;;2.50;2.50;;;;;19.33;49.93;102227.56;4863484;29;45318;-64
2022/07/10 04:01:32;;;;;;;;;3.00;3.00;;;;;19.36;49.53;102227.41;4863078;29;48592;-64
2022/07/10 04:03:57;;;;;;;;;3.75;3.00;;;;;19.34;49.66;102224.78;4863218;29;45356;-64
2022/07/10 04:06:22;;;;;;;;;3.25;2.50;;;;;19.30;49.48;102223.19;4862082;29;45463;-64
2022/07/10 04:08:48;;;;;;;;;4.75;3.75;;;;;19.15;49.84;102211.22;4863104;29;45734;-65
2022/07/10 04:11:13;;;;;;;;;6.25;4.75;;;;;19.19;49.70;102220.94;4860563;29;45560;-65
2022/07/10 04:13:38;;;;;;;;;2.00;2.00;;;;;19.17;49.76;102224.69;4863483;29;45424;-64
2022/07/10 04:16:04;;;;;;;;;5.50;4.25;;;;;19.12;50.01;102227.59;4863725;29;45600;-64
2022/07/10 04:18:30;;;;;;;;;4.50;3.75;;;;;19.04;50.27;102229.75;4860903;29;46293;-64
2022/07/10 04:20:55;;;;;;;;;4.75;3.00;;;;;18.99;49.95;102227.25;4860900;29;52066;-64
2022/07/10 04:23:20;;;;;;;;;4.75;4.00;;;;;19.01;50.50;102230.78;4863158;29;45343;-64
2022/07/10 04:25:46;;;;;;;;;4.25;3.50;;;;;19.03;50.40;102226.19;4865499;29;45579;-64
2022/07/10 04:28:11;;;;;;;;;3.50;3.50;;;;;19.05;50.38;102224.28;4861055;29;57465;-64
2022/07/10 04:30:36;;;;;;;;;4.25;3.25;;;;;19.10;50.54;102225.91;4863579;29;45285;-64
2022/07/10 04:33:01;;;;;;;;;3.00;3.00;;;;;19.15;50.01;102234.69;4863693;29;45730;-65
2022/07/10 04:35:27;;;;;;;;;6.00;3.00;;;;;19.07;49.99;102229.63;4845650;29;46620;-64
2022/07/10 04:37:52;;;;;;;;;4.25;4.00;;;;;19.06;50.17;102230.56;4862924;29;45636;-64
2022/07/10 04:40:18;;;;;;;;;3.00;2.00;;;;;18.93;49.89;102219.41;4862875;29;45436;-64
2022/07/10 04:42:43;;;;;;;;;4.75;4.75;;;;;18.91;50.62;102239.34;4858045;29;45442;-64
2022/07/10 04:45:09;;;;;;;;;3.25;3.25;;;;;18.80;50.54;102223.56;4863322;29;55449;-64
2022/07/10 04:47:34;;;;;;;;;3.00;3.00;;;;;18.80;50.64;102231.69;4860585;29;45450;-64
2022/07/10 04:49:59;;;;;;;;;5.00;3.50;;;;;18.83;50.26;102240.56;4862894;29;45557;-64
2022/07/10 04:52:24;;;;;;;;;4.25;3.75;;;;;18.77;50.47;102237.22;4860547;29;45392;-64
2022/07/10 04:54:50;;;;;;;;;5.00;5.00;;;;;18.70;51.11;102234.78;4863081;29;48513;-64
2022/07/10 04:57:15;;;;;;;;;4.00;4.00;;;;;18.61;50.78;102226.16;4861376;29;50978;-64
2022/07/10 04:59:41;;;;;;;;;4.00;3.00;;;;;18.62;51.31;102242.34;4863986;29;45476;-64
2022/07/10 05:02:08;;;;;;;;;0.00;0.00;;;;;18.57;51.30;102240.78;4861402;29;51352;-64
2022/07/10 05:04:33;;;;;;;;;7.00;5.00;;;;;18.55;51.70;102234.56;4862956;29;45547;-64
2022/07/10 05:06:58;;;;;;;;;4.50;4.50;;;;;18.48;51.49;102228.53;4858054;29;45838;-64
2022/07/10 05:09:24;;;;;;;;;4.50;4.50;;;;;18.48;51.17;102240.22;4862707;29;45402;-64
2022/07/10 05:11:49;;;;;;;;;5.00;4.00;;;;;18.46;51.37;102239.41;4862946;29;46383;-64
2022/07/10 05:14:16;;;;;;;;;5.50;5.00;;;;;18.41;51.65;102241.44;4863836;29;45560;-64
2022/07/10 05:16:41;;;;;;;;;5.00;4.00;;;;;18.41;51.73;102238.72;4860857;29;46962;-64
2022/07/10 05:19:06;;;;;;;;;5.00;4.25;;;;;18.51;51.52;102242.81;4862617;29;45411;-64
2022/07/10 05:21:32;;;;;;;;;4.75;4.75;;;;;18.52;51.58;102241.84;4862791;29;45437;-64
2022/07/10 05:23:57;;;;;;;;;3.25;3.25;;;;;18.54;51.57;102243.63;4860687;29;45355;-64
2022/07/10 05:26:22;;;;;;;;;4.00;3.50;;;;;18.54;51.72;102249.03;4846316;29;46127;-64
2022/07/10 05:28:47;;;;;;;;;4.25;4.25;;;;;18.50;51.21;102250.97;4863040;29;47627;-64
2022/07/10 05:31:13;;;;;;;;;4.00;3.25;;;;;18.46;51.28;102246.63;4860159;29;49312;-64
2022/07/10 05:33:40;;;;;;;;;4.25;4.00;;;;;18.37;52.03;102252.44;4862928;29;45377;-64
2022/07/10 05:36:06;;;;;;;;;5.75;4.00;;;;;18.36;52.12;102250.66;4862731;29;46136;-64
2022/07/10 05:38:31;;;;;;;;;4.25;4.25;;;;;18.37;51.82;102244.31;4843265;29;45673;-64
2022/07/10 05:40:57;;;;;;;;;3.75;3.75;;;;;18.37;52.30;102242.50;4862914;29;45405;-64
2022/07/10 05:43:22;;;;;;;;;4.00;2.75;;;;;18.32;51.73;102242.66;4861077;29;56220;-68
2022/07/10 05:45:47;;;;;;;;;5.00;5.00;;;;;18.31;51.65;102248.16;4863185;29;45399;-68
2022/07/10 05:48:13;;;;;;;;;4.00;4.00;;;;;18.28;52.14;102248.28;4860800;29;45360;-65
2022/07/10 05:50:38;;;;;;;;;3.75;3.00;;;;;18.30;52.06;102257.22;4863112;29;45249;-65
2022/07/10 05:53:03;;;;;;;;;6.75;4.75;;;;;18.27;51.85;102260.91;4858799;29;45631;-65
2022/07/10 05:55:29;;;;;;;;;4.00;4.00;;;;;18.27;51.92;102257.31;4860558;29;45524;-66
2022/07/10 05:57:55;;;;;;;;;2.75;2.75;;;;;18.26;52.40;102256.47;4857422;29;50570;-66
2022/07/10 06:00:20;;;;;;;;;4.25;3.50;;;;;18.31;52.17;102264.38;4861952;29;45317;-66
2022/07/10 06:02:46;;;;;;;;;3.25;3.00;;;;;18.31;51.88;102261.69;4862010;29;45472;-67
2022/07/10 06:05:11;;;;;;;;;5.00;3.75;;;;;18.36;52.64;102261.47;4857907;29;45413;-66
2022/07/10 06:07:36;;;;;;;;;3.25;3.25;;;;;18.39;52.09;102259.50;4860694;29;45478;-66
2022/07/10 06:10:03;;;;;;;;;4.00;3.50;;;;;18.44;52.24;102257.53;4860567;29;45359;-66
2022/07/10 06:12:29;;;;;;;;;4.00;4.00;;;;;18.51;52.07;102260.88;4861926;29;45247;-67
2022/07/10 06:14:54;;;;;;;;;4.00;4.00;;;;;18.59;52.09;102260.53;4859807;29;45400;-66
2022/07/10 06:17:19;;;;;;;;;6.00;4.00;;;;;18.62;51.46;102255.00;4860157;29;55292;-66
2022/07/10 06:19:44;;;;;;;;;5.50;3.25;;;;;18.69;51.37;102259.19;4860386;29;45576;-66
2022/07/10 06:24:53;;;;;;;;;4.00;4.00;;;;;18.61;50.96;102239.69;4862014;29;45471;-66
2022/07/10 06:27:19;;;;;;;;;3.75;3.75;;;;;18.68;51.48;102260.16;4862792;29;45481;-65
2022/07/10 06:29:44;;;;;;;;;5.00;4.00;;;;;18.63;50.76;102249.50;4868749;29;45463;-66
2022/07/10 06:32:10;;;;;;;;;3.25;3.00;;;;;18.62;51.35;102241.47;4868139;29;45269;-66
2022/07/10 06:34:35;;;;;;;;;3.75;3.75;;;;;18.67;51.63;102250.25;4851528;29;48242;-66
2022/07/10 06:37:00;;;;;;;;;4.25;4.00;;;;;18.68;51.42;102246.63;4867355;29;45516;-66
2022/07/10 06:39:26;;;;;;;;;4.00;4.00;;;;;18.70;51.06;102248.31;4867125;29;45551;-66
2022/07/10 06:41:51;;;;;;;;;4.25;3.25;;;;;18.69;51.01;102251.06;4863321;29;46985;-65
2022/07/10 06:44:16;;;;;;;;;3.75;3.25;;;;;18.68;50.66;102231.25;4863173;29;53394;-66
2022/07/10 06:47:55;;;;;;;;;2.00;2.00;;;;;18.70;50.85;102234.78;4866288;29;45440;-67
2022/07/10 06:49:27;;;;;;;;;5.25;4.25;;;;;18.67;50.62;102224.09;4867112;29;45568;-66
2022/07/10 06:51:53;;;;;;;;;5.25;3.75;;;;;18.79;51.01;102238.03;4866252;29;51424;-67
2022/07/10 06:54:18;;;;;;;;;3.50;3.00;;;;;18.86;50.64;102244.97;4850436;29;46965;-67
2022/07/10 06:56:43;;;;;;;;;5.50;5.50;;;;;18.88;50.66;102252.09;4848047;29;54608;-66
2022/07/10 06:59:09;;;;;;;;;0.75;0.75;;;;;18.84;50.70;102234.25;4864372;29;45245;-66
2022/07/10 07:01:34;;;;;;;;;4.00;4.00;;;;;18.93;50.12;102241.06;4867077;29;46699;-66
2022/07/10 07:03:59;;;;;;;;;3.75;3.75;;;;;19.00;49.95;102244.38;4847494;29;46686;-67
2022/07/10 07:06:25;;;;;;;;;3.50;3.50;;;;;19.00;49.95;102244.38;4855071;29;50712;-67
2022/07/10 07:08:50;;;;;;;;;3.00;3.00;;;;;19.00;49.79;102247.97;4863243;29;45465;-66
2022/07/10 07:11:15;;;;;;;;;3.75;3.75;;;;;19.02;49.41;102250.59;4854365;29;45388;-66
2022/07/10 07:13:40;;;;;;;;;3.25;3.00;;;;;19.06;49.66;102247.69;4848990;29;50288;-66
2022/07/10 07:16:09;;;;;;;;;3.00;1.25;;;;;19.10;49.20;102251.13;4855295;29;52175;-66
2022/07/10 07:18:37;;;;;;;;;3.50;3.00;;;;;19.12;49.53;102256.50;4862982;29;45265;-66
2022/07/10 07:23:46;;;;;;;;;2.00;1.00;;;;;19.15;48.60;102249.09;4868170;29;45503;-66
2022/07/10 07:26:11;;;;;;;;;2.75;2.50;;;;;19.21;48.99;102248.84;4850672;29;45469;-66
2022/07/10 07:28:37;;;;;;;;;3.00;3.00;;;;;19.21;49.74;102231.69;4847778;29;45397;-66
2022/07/10 07:31:02;;;;;;;;;3.00;3.00;;;;;19.31;48.79;102249.31;4856625;29;46842;-67
2022/07/10 07:33:27;;;;;;;;;2.50;2.50;;;;;19.32;48.51;102234.81;4856540;29;46824;-68
2022/07/10 07:35:53;;;;;;;;;1.75;1.75;;;;;19.39;48.73;102236.28;4848545;29;45318;-67
2022/07/10 07:38:18;;;;;;;;;3.00;3.00;;;;;19.37;48.24;102227.34;4855746;29;45356;-66
2022/07/10 07:40:44;;;;;;;;;3.00;3.00;;;;;19.44;48.13;102228.84;4849938;29;45663;-66
2022/07/10 07:43:09;;;;;;;;;4.75;2.75;;;;;19.49;48.30;102230.44;4856301;29;46943;-66
2022/07/10 07:45:35;;;;;;;;;1.00;1.00;;;;;19.56;48.39;102226.50;4865796;29;45322;-66
2022/07/10 07:48:01;;;;;;;;;2.25;2.00;;;;;19.66;48.54;102225.09;4843731;29;46583;-67
2022/07/10 07:50:31;;;;;;;;;4.50;4.00;;;;;19.73;47.88;102215.75;4850045;29;45464;-67
2022/07/10 07:52:56;;;;;;;;;3.50;3.00;;;;;19.79;47.76;102214.59;4859165;29;45596;-66
2022/07/10 07:55:22;;;;;;;;;1.50;1.50;;;;;19.87;47.45;102219.66;4844123;29;45461;-66
2022/07/10 07:57:51;;;;;;;;;3.50;3.50;;;;;19.92;47.54;102213.06;4853732;29;45361;-67
2022/07/10 08:00:17;;;;;;;;;2.50;2.50;;;;;20.01;47.28;102210.88;4852407;29;45244;-66
2022/07/10 08:02:43;;;;;;;;;2.00;2.00;;;;;20.07;46.97;102222.28;4848421;29;45910;-66
2022/07/10 08:05:09;;;;;;;;;1.25;1.25;;;;;20.06;46.57;102215.09;4862772;29;45302;-66
2022/07/10 08:07:45;;;;;;;;;2.00;2.00;;;;;20.14;47.12;102226.44;4876966;29;45301;-66
2022/07/10 08:10:14;;;;;;;;;2.00;2.00;;;;;20.22;46.05;102227.91;4850968;29;45576;-66
2022/07/10 08:12:40;;;;;;;;;4.00;4.00;;;;;20.27;46.25;102223.16;4852243;29;45502;-68
2022/07/10 08:15:11;;;;;;;;;2.00;2.00;;;;;20.30;46.05;102218.44;4842204;29;45456;-65
2022/07/10 08:17:37;;;;;;;;;3.00;3.00;;;;;20.33;46.53;102212.88;4852556;29;45599;-65
2022/07/10 08:20:04;;;;;;;;;3.25;3.25;;;;;20.42;46.50;102199.81;4859107;29;45402;-66
2022/07/10 08:22:30;;;;;;;;;2.75;2.25;;;;;20.57;46.91;102209.00;4857070;29;47168;-67
2022/07/10 08:24:58;;;;;;;;;2.25;2.25;;;;;20.64;45.62;102199.59;4866901;29;45304;-67
2022/07/10 08:27:24;;;;;;;;;4.50;4.50;;;;;20.76;46.07;102200.78;4876073;29;45420;-67
2022/07/10 08:29:49;;;;;;;;;5.00;2.00;;;;;20.81;45.12;102196.00;4847079;29;45286;-67
2022/07/10 08:32:15;;;;;;;;;2.50;2.50;;;;;20.89;44.82;102205.50;4846524;29;48050;-67
2022/07/10 08:34:40;;;;;;;;;8.25;7.00;;;;;20.94;45.43;102191.69;4875644;29;45551;-67
2022/07/10 08:37:05;;;;;;;;;4.25;4.25;;;;;21.02;45.63;102202.16;4876962;29;45230;-67
2022/07/10 08:39:33;;;;;;;;;2.50;2.50;;;;;21.11;45.03;102207.06;4868122;29;45435;-76
2022/07/10 08:41:59;;;;;;;;;2.25;2.00;;;;;21.09;44.25;102185.44;4862291;29;45676;-77
2022/07/10 08:44:24;;;;;;;;;2.75;2.75;;;;;21.08;44.18;102180.06;4855015;29;45402;-79
2022/07/10 08:46:50;;;;;;;;;3.75;2.50;;;;;21.13;43.94;102182.56;4857113;29;45389;-77
2022/07/10 08:49:17;;;;;;;;;2.00;2.00;;;;;21.24;43.96;102200.00;4848579;29;45387;-77
2022/07/10 08:52:03;;;;;;;;;2.00;2.00;;;;;21.36;43.96;102203.03;4847423;29;46325;-77
2022/07/10 08:54:30;;;;;;;;;0.00;0.00;;;;;21.42;43.33;102199.97;4846324;29;45795;-77
2022/07/10 08:56:57;;;;;;;;;2.00;2.00;;;;;21.23;42.94;102153.94;4847502;29;45258;-78
2022/07/10 08:59:22;;;;;;;;;3.00;3.00;;;;;21.29;43.62;102159.91;4846394;29;45482;-77
2022/07/10 09:01:49;;;;;;;;;2.50;2.50;;;;;21.37;42.67;102156.78;4851414;29;47107;-77
2022/07/10 09:04:18;;;;;;;;;6.25;3.00;;;;;21.40;42.84;102147.56;4856708;29;45476;-74
2022/07/10 09:06:44;;;;;;;;;1.50;1.50;;;;;21.65;42.51;102193.28;4856896;29;45555;-74
2022/07/10 09:09:10;;;;;;;;;2.00;2.00;;;;;21.55;42.12;102165.78;4864900;29;45325;-79
2022/07/10 09:11:38;;;;;;;;;3.25;3.00;;;;;21.60;41.94;102163.66;4850568;29;45412;-80
2022/07/10 09:14:08;;;;;;;;;2.00;2.00;;;;;21.66;42.21;102170.59;4847486;29;45606;-74
2022/07/10 09:16:36;;;;;;;;;3.00;3.00;;;;;21.73;41.63;102166.53;4861485;29;45252;-75
2022/07/10 09:19:21;;;;;;;;;3.00;3.00;;;;;21.75;41.83;102167.34;4834927;29;46078;-72
2022/07/10 09:21:49;;;;;;;;;3.00;2.50;;;;;21.72;41.72;102158.47;4850965;29;47620;-75
2022/07/10 09:24:22;;;;;;;;;2.25;1.50;;;;;21.84;41.53;102169.53;4865386;29;45538;-77
2022/07/10 09:27:08;;;;;;;;;2.75;2.75;;;;;21.82;41.95;102157.00;4862870;29;45471;-77
2022/07/10 09:29:46;;;;;;;;;2.00;2.00;;;;;21.89;41.25;102152.97;4853883;29;45443;-73
2022/07/10 09:32:12;;;;;;;;;3.00;3.00;;;;;22.01;42.05;102163.13;4864882;29;46330;-73
2022/07/10 09:34:46;;;;;;;;;2.00;2.00;;;;;22.07;41.06;102161.00;4857831;29;45401;-76
2022/07/10 09:37:27;;;;;;;;;4.50;3.00;;;;;22.08;41.58;102152.75;4858059;29;45466;-75
2022/07/10 09:40:03;;;;;;;;;3.25;2.75;;;;;22.09;40.87;102135.50;4859777;29;45394;-74
2022/07/10 09:42:28;;;;;;;;;5.00;3.00;;;;;22.26;41.63;102161.69;4866825;29;46549;-71
2022/07/10 09:45:18;;;;;;;;;2.25;1.00;;;;;22.35;41.16;102154.84;4864856;29;45292;-71
2022/07/10 09:47:54;;;;;;;;;2.75;2.75;;;;;22.32;41.06;102134.16;4862405;29;45229;-74
2022/07/10 09:50:25;;;;;;;;;4.00;3.50;;;;;22.50;40.97;102162.09;4848511;29;45519;-74
2022/07/10 09:52:54;;;;;;;;;3.00;3.00;;;;;22.49;40.76;102152.19;4857571;29;46068;-73
2022/07/10 09:55:21;;;;;;;;;2.50;2.50;;;;;22.50;40.40;102136.72;4864066;29;45346;-74
2022/07/10 09:57:53;;;;;;;;;3.00;3.00;;;;;22.57;40.53;102154.44;4856465;29;45427;-73
2022/07/10 10:00:25;;;;;;;;;2.25;2.25;;;;;22.58;40.39;102157.03;4863979;29;45284;-74
2022/07/10 10:02:54;;;;;;;;;2.00;2.00;;;;;22.55;39.93;102143.66;4856230;29;46894;-74
2022/07/10 10:05:21;;;;;;;;;2.50;2.00;;;;;22.61;39.94;102157.84;4856454;29;45339;-73
2022/07/10 10:07:47;;;;;;;;;2.50;2.50;;;;;22.64;40.61;102149.50;4849291;29;45860;-73
2022/07/10 10:10:13;;;;;;;;;3.75;2.25;;;;;22.74;41.00;102150.69;4863391;29;45444;-73
2022/07/10 10:12:52;;;;;;;;;2.25;2.00;;;;;22.74;40.25;102131.63;4848200;29;48373;-73
2022/07/10 10:15:18;;;;;;;;;3.50;3.00;;;;;22.82;40.01;102140.19;4863920;29;46028;-72
2022/07/10 10:17:45;;;;;;;;;3.75;2.00;;;;;22.85;40.05;102134.53;4845266;29;45437;-73
2022/07/10 10:23:00;;;;;;;;;1.75;1.75;;;;;22.89;40.41;102127.09;4859996;29;45841;-73
2022/07/10 10:25:28;;;;;;;;;2.00;2.00;;;;;22.92;40.01;102127.75;4849492;29;45665;-71
2022/07/10 10:27:54;;;;;;;;;2.00;2.00;;;;;23.03;39.96;102135.25;4859160;29;45535;-79
2022/07/10 10:30:19;;;;;;;;;2.00;2.00;;;;;23.03;39.79;102131.66;4839509;29;46340;-67
2022/07/10 10:32:45;;;;;;;;;3.25;2.50;;;;;23.08;39.93;102121.38;4867908;29;46310;-66
2022/07/10 10:35:10;;;;;;;;;2.25;2.25;;;;;23.10;39.80;102128.47;4863626;29;45869;-67
2022/07/10 10:37:38;;;;;;;;;3.00;3.00;;;;;23.15;39.26;102132.75;4863847;29;45673;-66
2022/07/10 10:40:05;;;;;;;;;1.50;1.50;;;;;23.16;39.78;102129.94;4868546;29;45538;-67
2022/07/10 10:42:35;;;;;;;;;1.00;1.00;;;;;23.18;39.35;102121.66;4874570;29;46873;-66
2022/07/10 10:45:31;;;;;;;;;2.00;2.00;;;;;23.22;39.44;102123.19;4847124;29;45630;-66
2022/07/10 10:48:11;;;;;;;;;3.50;3.50;;;;;23.18;39.24;102117.09;4866319;29;45568;-66
2022/07/10 10:50:53;;;;;;;;;3.00;1.25;;;;;23.18;39.40;102108.03;4871000;29;45329;-66
2022/07/10 10:53:27;;;;;;;;;2.75;2.75;;;;;23.25;39.57;102107.53;4866889;29;47195;-66
2022/07/10 10:56:07;;;;;;;;;4.50;4.50;;;;;23.31;39.26;102095.38;4865839;29;45462;-66
2022/07/10 10:58:44;;;;;;;;;2.25;2.25;;;;;23.35;39.52;102096.06;4866793;29;45301;-66
2022/07/10 11:01:22;;;;;;;;;3.00;3.00;;;;;23.45;39.67;102097.19;4866403;29;45678;-66
2022/07/10 11:04:10;;;;;;;;;2.50;2.50;;;;;23.51;39.55;102088.63;4865337;29;45928;-66
2022/07/10 11:06:42;;;;;;;;;2.00;2.00;;;;;23.57;39.62;102082.78;4867347;29;45334;-66
2022/07/10 11:09:31;;;;;;;;;2.00;2.00;;;;;23.64;39.20;102084.13;4867235;29;45435;-66
2022/07/10 11:12:08;;;;;;;;;1.00;1.00;;;;;23.64;38.96;102078.66;4851069;29;45427;-67
2022/07/10 11:14:46;;;;;;;;;2.75;1.75;;;;;23.64;38.90;102073.22;4863687;29;45320;-67
2022/07/10 11:17:12;;;;;;;;;3.00;1.00;;;;;23.62;38.91;102067.00;4842738;29;45475;-67
2022/07/10 11:19:39;;;;;;;;;2.00;2.00;;;;;23.63;39.21;102076.03;4865392;29;46144;-80
2022/07/10 11:22:10;;;;;;;;;1.75;1.75;;;;;23.69;39.14;102081.09;4873469;29;45537;-74
2022/07/10 11:25:01;;;;;;;;;2.00;2.00;;;;;23.63;39.03;102066.00;4867821;29;45324;-74
2022/07/10 11:27:59;;;;;;;;;3.00;1.50;;;;;23.73;39.44;102063.53;4864902;29;45413;-72
2022/07/10 11:30:25;;;;;;;;;2.00;2.00;;;;;23.75;38.70;102055.25;4866415;29;45512;-67
2022/07/10 11:32:51;;;;;;;;;0.25;0.25;;;;;23.82;39.05;102054.78;4867154;29;45468;-67
2022/07/10 11:35:18;;;;;;;;;4.25;3.00;;;;;23.86;39.27;102044.53;4867247;29;47504;-66
2022/07/10 11:37:51;;;;;;;;;20.75;19.75;;;;;23.90;39.07;102047.91;4850193;29;45535;-66